Time;durP1;ratioP1;P1;durP2;ratioP2;P2;SDS_P1;SDS_P2;PMS_P1;PMS_P2;Temp;Humidity;BMP_temperature;BMP_pressure;BME280_temperature;BME280_humidity;BME280_pressure;Samples;Min_cycle;Max_cycle;Signal;HPM_P1;HPM_P2
2021/09/25 00:11:18;;;;;;;1.97;1.87;;;16.70;99.90;;;;;;6239482;22;20383;-91
2021/09/25 00:14:03;;;;;;;2.25;2.10;;;16.80;99.90;;;;;;6193852;22;20362;-91
2021/09/25 02:49:20;;;;;;;3.10;2.30;;;16.70;99.90;;;;;;6257384;22;20374;-91
2021/09/25 02:52:05;;;;;;;2.40;2.20;;;16.70;99.90;;;;;;6198174;22;20373;-93
2021/09/25 02:54:49;;;;;;;1.77;1.67;;;16.60;99.90;;;;;;6195288;22;20359;-91
2021/09/25 02:57:34;;;;;;;2.20;2.00;;;16.70;99.90;;;;;;6217012;22;20355;-93
2021/09/25 03:00:19;;;;;;;2.15;2.05;;;16.70;99.90;;;;;;6216090;22;20442;-92
2021/09/25 03:03:04;;;;;;;2.22;2.03;;;16.70;99.90;;;;;;6173884;22;20379;-90
2021/09/25 03:05:49;;;;;;;2.33;2.13;;;16.70;99.90;;;;;;6173217;22;20374;-92
2021/09/25 03:08:33;;;;;;;3.15;1.67;;;16.60;99.90;;;;;;6215009;22;20347;-91
2021/09/25 03:11:18;;;;;;;2.10;1.98;;;16.70;99.90;;;;;;6214973;22;20351;-91
2021/09/25 03:14:02;;;;;;;1.73;1.63;;;16.70;99.90;;;;;;6194052;22;20342;-90
2021/09/25 03:16:47;;;;;;;2.33;2.22;;;16.80;99.90;;;;;;6192532;22;20420;-91
2021/09/25 03:19:32;;;;;;;2.00;1.90;;;16.70;99.90;;;;;;6209944;22;20492;-92
2021/09/25 03:22:17;;;;;;;2.38;2.28;;;16.80;99.90;;;;;;6213243;22;20443;-89
2021/09/25 03:25:06;;;;;;;2.28;2.17;;;16.60;99.90;;;;;;6216001;22;20354;-94
2021/09/25 03:28:05;;;;;;;2.15;2.05;;;16.60;99.90;;;;;;6220343;22;20359;-92
2021/09/25 03:30:49;;;;;;;2.50;2.30;;;16.60;99.90;;;;;;6194378;22;20382;-89
2021/09/25 03:33:34;;;;;;;2.50;2.25;;;16.60;99.90;;;;;;6172930;22;20347;-91
2021/09/25 03:36:18;;;;;;;2.23;2.13;;;16.60;99.90;;;;;;6213759;22;20410;-92
2021/09/25 03:39:03;;;;;;;2.70;2.50;;;16.60;99.90;;;;;;6172400;22;20371;-90
2021/09/25 03:41:48;;;;;;;2.30;2.20;;;16.60;99.90;;;;;;6213243;22;20383;-90
2021/09/25 03:44:32;;;;;;;2.13;1.92;;;16.60;99.90;;;;;;6211936;22;20371;-91
2021/09/25 03:47:17;;;;;;;2.43;2.23;;;16.70;99.90;;;;;;6212342;23;20379;-90
2021/09/25 03:50:02;;;;;;;2.45;2.25;;;16.60;99.90;;;;;;6172139;23;20358;-92
2021/09/25 03:52:46;;;;;;;2.85;2.28;;;16.70;99.90;;;;;;6212522;22;20358;-91
2021/09/25 03:55:31;;;;;;;2.10;2.00;;;16.60;99.90;;;;;;6213406;23;20386;-91
2021/09/25 03:58:15;;;;;;;2.60;2.40;;;16.80;99.90;;;;;;6212500;23;20378;-91
2021/09/25 04:00:59;;;;;;;2.67;2.30;;;16.70;99.90;;;;;;6213945;22;20371;-91
2021/09/25 04:03:44;;;;;;;2.50;2.30;;;16.60;99.90;;;;;;6212476;23;20403;-90
2021/09/25 04:06:28;;;;;;;2.50;2.30;;;16.60;99.90;;;;;;6191112;22;20391;-91
2021/09/25 04:09:13;;;;;;;1.85;1.75;;;16.60;99.90;;;;;;6213465;22;20359;-90
2021/09/25 04:11:58;;;;;;;2.28;2.08;;;16.60;99.90;;;;;;6214089;22;20367;-91
2021/09/25 04:14:42;;;;;;;2.65;2.35;;;16.60;99.90;;;;;;6215061;22;20398;-90
2021/09/25 04:17:26;;;;;;;2.67;2.47;;;16.60;99.90;;;;;;6214001;23;20347;-89
2021/09/25 04:20:11;;;;;;;2.63;2.25;;;16.60;99.90;;;;;;6213136;22;20366;-91
2021/09/25 04:22:55;;;;;;;2.37;2.17;;;16.60;99.90;;;;;;6171847;22;20375;-89
2021/09/25 04:25:40;;;;;;;2.20;2.10;;;16.60;99.90;;;;;;6172013;22;20379;-90
2021/09/25 04:28:24;;;;;;;3.67;2.30;;;16.80;99.90;;;;;;6214279;22;20358;-91
2021/09/25 04:31:08;;;;;;;2.03;1.93;;;16.70;99.90;;;;;;6213852;23;20402;-89
2021/09/25 04:33:53;;;;;;;3.08;2.55;;;16.70;99.90;;;;;;6213446;22;20419;-92
2021/09/25 04:36:40;;;;;;;2.08;1.98;;;16.60;99.90;;;;;;6215014;22;20378;-93
2021/09/25 04:39:25;;;;;;;3.08;2.42;;;16.60;99.90;;;;;;6173497;22;20378;-91
2021/09/25 04:42:09;;;;;;;2.50;2.30;;;16.60;99.90;;;;;;6213292;22;20387;-89
2021/09/25 04:44:55;;;;;;;3.75;2.58;;;16.60;99.90;;;;;;6213555;22;20386;-91
2021/09/25 04:47:40;;;;;;;2.13;1.92;;;16.60;99.90;;;;;;6213799;22;20354;-91
2021/09/25 04:50:29;;;;;;;3.08;2.58;;;16.60;99.90;;;;;;6172578;22;20370;-91
2021/09/25 04:53:14;;;;;;;2.05;1.95;;;16.60;99.90;;;;;;6214731;22;20350;-92
2021/09/25 04:55:58;;;;;;;3.15;2.70;;;16.60;99.90;;;;;;6213438;22;20423;-90
2021/09/25 04:58:43;;;;;;;2.65;2.45;;;16.60;99.90;;;;;;6191738;22;20383;-91
2021/09/25 05:01:28;;;;;;;2.67;2.47;;;16.60;99.90;;;;;;6213780;22;20426;-92
2021/09/25 05:04:13;;;;;;;2.70;2.33;;;16.60;99.90;;;;;;6192863;22;20399;-93
2021/09/25 05:06:57;;;;;;;2.10;2.00;;;16.60;99.90;;;;;;6213219;22;20366;-91
2021/09/25 05:09:45;;;;;;;1.80;1.70;;;16.60;99.90;;;;;;6171348;22;20375;-91
2021/09/25 05:12:29;;;;;;;2.10;2.00;;;16.60;99.90;;;;;;6214195;23;20355;-93
2021/09/25 05:15:14;;;;;;;2.40;2.20;;;16.60;99.90;;;;;;6198352;22;20371;-89
2021/09/25 05:17:58;;;;;;;2.80;2.45;;;16.70;99.90;;;;;;6213410;22;20359;-91
2021/09/25 05:20:43;;;;;;;1.90;1.80;;;16.60;99.90;;;;;;6171732;22;20358;-91
2021/09/25 05:23:27;;;;;;;2.15;1.95;;;16.70;99.90;;;;;;6213250;22;20354;-90
2021/09/25 05:26:11;;;;;;;2.10;2.00;;;16.70;99.90;;;;;;6212851;22;20366;-90
2021/09/25 05:28:55;;;;;;;2.55;2.35;;;16.70;99.90;;;;;;6214241;22;20358;-90
2021/09/25 05:31:40;;;;;;;2.25;2.00;;;16.70;99.90;;;;;;6215796;22;20355;-91
2021/09/25 05:34:25;;;;;;;2.25;2.05;;;16.70;99.90;;;;;;6215325;22;20358;-91
2021/09/25 05:48:55;;;;;;;2.30;2.00;;;16.90;99.90;;;;;;6230236;22;20372;-90
2021/09/25 05:51:40;;;;;;;2.70;2.47;;;16.90;99.90;;;;;;6170147;22;20362;-91
2021/09/25 05:54:25;;;;;;;2.40;2.20;;;16.90;99.90;;;;;;6191710;22;20385;-91
2021/09/25 05:57:10;;;;;;;1.83;1.73;;;16.90;99.90;;;;;;6172817;22;20437;-90
2021/09/25 05:59:55;;;;;;;2.20;2.00;;;16.90;99.90;;;;;;6192720;22;20366;-90
2021/09/25 06:02:40;;;;;;;2.65;2.45;;;16.90;99.90;;;;;;6168609;22;20403;-90
2021/09/25 06:05:25;;;;;;;1.70;1.60;;;17.00;99.90;;;;;;6150818;22;20500;-92
2021/09/25 06:08:10;;;;;;;1.90;1.80;;;17.00;99.90;;;;;;6170690;22;20402;-91
2021/09/25 06:10:55;;;;;;;2.17;2.00;;;17.10;99.90;;;;;;6191272;22;20398;-89
2021/09/25 06:13:40;;;;;;;2.25;1.95;;;17.10;99.90;;;;;;6150969;22;20362;-91
2021/09/25 06:16:26;;;;;;;2.38;2.17;;;17.10;99.90;;;;;;6151593;22;20362;-91
2021/09/25 06:19:15;;;;;;;2.53;2.33;;;17.20;99.90;;;;;;6156494;22;20382;-92
2021/09/25 06:42:34;;;;;;;4.00;2.30;;;17.70;99.90;;;;;;6234616;22;20388;-91
2021/09/25 06:45:24;;;;;;;2.28;2.15;;;17.60;99.90;;;;;;6159791;23;21099;-91
2021/09/25 06:48:13;;;;;;;2.40;2.20;;;17.60;99.90;;;;;;6199688;23;20421;-91
2021/09/25 07:06:12;;;;;;;2.10;1.90;;;18.00;99.90;;;;;;6186751;23;20440;-92
2021/09/25 07:08:56;;;;;;;2.60;2.40;;;18.10;99.90;;;;;;6121748;23;20352;-91
2021/09/25 07:57:26;;;;;;;2.72;2.28;;;18.30;99.90;;;;;;6222110;22;20371;-92
2021/09/25 08:00:14;;;;;;;2.67;2.47;;;18.40;99.90;;;;;;6188300;23;20354;-91
2021/09/25 08:02:59;;;;;;;2.80;2.60;;;18.40;99.90;;;;;;6163797;23;20390;-92
2021/09/25 08:05:43;;;;;;;2.67;2.40;;;18.30;99.90;;;;;;6144451;23;20366;-89
2021/09/25 08:08:28;;;;;;;2.30;2.10;;;18.40;99.90;;;;;;6165991;23;20368;-92
2021/09/25 08:11:12;;;;;;;2.65;2.45;;;18.40;99.90;;;;;;6148594;23;20378;-92
2021/09/25 08:13:57;;;;;;;2.45;2.22;;;18.40;99.90;;;;;;6185624;23;20374;-90
2021/09/25 08:16:41;;;;;;;2.58;2.20;;;18.50;99.90;;;;;;6144857;23;20452;-87
2021/09/25 08:19:25;;;;;;;3.47;2.05;;;18.60;99.90;;;;;;6186221;23;20379;-88
2021/09/25 08:22:09;;;;;;;2.65;2.45;;;18.60;99.90;;;;;;6164997;23;20446;-90
2021/09/25 08:24:54;;;;;;;2.67;2.47;;;18.60;99.90;;;;;;6163106;23;20973;-90
2021/09/25 08:27:39;;;;;;;2.95;2.65;;;18.70;99.90;;;;;;6187763;23;20366;-91
2021/09/25 08:30:25;;;;;;;3.03;2.83;;;18.70;99.90;;;;;;6170332;23;20436;-92
2021/09/25 08:33:09;;;;;;;2.70;2.40;;;18.70;99.90;;;;;;6167943;23;20363;-87
2021/09/25 08:35:54;;;;;;;3.00;2.38;;;18.70;99.90;;;;;;6141877;23;20397;-91
2021/09/25 08:38:39;;;;;;;2.22;2.13;;;18.70;99.90;;;;;;6150918;22;20382;-91
2021/09/25 09:14:55;;;;;;;3.38;3.15;;;18.30;99.90;;;;;;6228588;22;20375;-89
2021/09/25 09:17:42;;;;;;;3.47;3.17;;;18.50;99.90;;;;;;6146459;23;20390;-91
2021/09/25 09:20:28;;;;;;;3.97;3.22;;;18.50;99.90;;;;;;6143699;23;20374;-90
2021/09/25 09:23:19;;;;;;;3.50;3.20;;;18.40;99.90;;;;;;6143794;23;20402;-88
2021/09/25 09:26:04;;;;;;;5.80;4.65;;;18.50;99.90;;;;;;6145029;23;20441;-89
2021/09/25 09:28:49;;;;;;;3.10;2.90;;;18.50;99.90;;;;;;6165298;23;20371;-89
2021/09/25 09:31:37;;;;;;;2.80;2.60;;;18.40;99.90;;;;;;6143946;23;20448;-87
2021/09/25 09:34:21;;;;;;;3.57;2.67;;;18.40;99.90;;;;;;6185609;23;20366;-90
2021/09/25 09:37:13;;;;;;;2.88;2.67;;;18.30;99.90;;;;;;6145605;23;20998;-90
2021/09/25 09:39:59;;;;;;;2.70;2.50;;;18.50;99.90;;;;;;6166198;23;20367;-89
2021/09/25 09:42:47;;;;;;;2.05;1.95;;;18.60;99.90;;;;;;6147188;23;20433;-90
2021/09/25 09:45:32;;;;;;;2.30;2.10;;;18.80;99.90;;;;;;6145196;23;20380;-86
2021/09/25 09:48:16;;;;;;;2.63;2.43;;;18.90;99.90;;;;;;6143027;23;20430;-90
2021/09/25 09:51:00;;;;;;;2.55;2.35;;;19.00;99.90;;;;;;6144323;23;20386;-91
2021/09/25 09:53:46;;;;;;;2.33;2.13;;;19.10;99.90;;;;;;6205874;23;20371;-88
2021/09/25 09:56:31;;;;;;;3.83;2.10;;;19.10;99.90;;;;;;6144120;23;20394;-90
2021/09/25 09:59:15;;;;;;;1.70;1.60;;;19.10;99.90;;;;;;6143055;23;20455;-90
2021/09/25 10:02:00;;;;;;;2.30;2.10;;;19.10;99.90;;;;;;6164476;23;20414;-88
2021/09/25 10:04:44;;;;;;;1.67;1.58;;;19.10;99.90;;;;;;6145539;23;20378;-92
2021/09/25 10:07:29;;;;;;;1.98;1.88;;;19.10;99.90;;;;;;6143747;23;20707;-91
2021/09/25 10:10:13;;;;;;;2.67;2.15;;;19.20;99.90;;;;;;6144358;23;20447;-92
2021/09/25 10:12:58;;;;;;;2.00;1.90;;;19.30;99.90;;;;;;6165028;23;20375;-90
2021/09/25 10:15:42;;;;;;;2.30;2.10;;;19.40;99.90;;;;;;6131028;23;20370;-91
2021/09/25 10:18:26;;;;;;;1.90;1.80;;;19.50;99.90;;;;;;6186542;23;20398;-92
2021/09/25 10:21:12;;;;;;;2.63;2.05;;;19.80;99.90;;;;;;6167008;23;20382;-91
2021/09/25 10:24:06;;;;;;;1.90;1.70;;;19.60;99.90;;;;;;6146618;22;20428;-91
2021/09/25 10:26:51;;;;;;;2.10;2.00;;;19.70;99.90;;;;;;6143125;23;20454;-89
2021/09/25 10:29:41;;;;;;;3.50;2.08;;;19.60;99.90;;;;;;6139880;23;20371;-86
2021/09/25 10:32:30;;;;;;;3.30;2.20;;;19.40;99.90;;;;;;6161619;23;20370;-84
2021/09/25 10:35:21;;;;;;;3.17;2.38;;;19.30;99.90;;;;;;6140849;23;20366;-89
2021/09/25 10:38:05;;;;;;;2.10;2.00;;;19.20;99.90;;;;;;6184225;23;20362;-87
2021/09/25 10:40:50;;;;;;;2.30;2.20;;;19.30;99.90;;;;;;6140715;23;20366;-88
2021/09/25 10:43:36;;;;;;;1.88;1.77;;;19.20;99.90;;;;;;6142032;23;20379;-87
2021/09/25 10:46:21;;;;;;;3.70;2.10;;;19.40;99.90;;;;;;6143458;23;20383;-85
2021/09/25 10:49:05;;;;;;;3.00;1.93;;;19.50;99.90;;;;;;6140770;23;20425;-88
2021/09/25 10:51:50;;;;;;;2.33;2.13;;;19.50;99.90;;;;;;6162646;23;20366;-86
2021/09/25 10:54:35;;;;;;;1.83;1.73;;;19.60;99.90;;;;;;6142714;23;20379;-85
2021/09/25 10:57:19;;;;;;;2.10;2.00;;;19.50;99.90;;;;;;6162433;23;20374;-90
2021/09/25 11:00:20;;;;;;;1.52;1.42;;;19.50;99.90;;;;;;6162570;23;20390;-87
2021/09/25 11:03:04;;;;;;;2.00;1.90;;;19.50;99.90;;;;;;6164347;23;20452;-87
2021/09/25 11:06:05;;;;;;;1.90;1.80;;;19.40;99.90;;;;;;6141637;23;20500;-90
2021/09/25 11:08:50;;;;;;;2.15;1.98;;;19.50;99.90;;;;;;6162476;23;20428;-89
2021/09/25 11:11:53;;;;;;;2.20;2.00;;;19.50;99.90;;;;;;6184609;23;20371;-87
2021/09/25 11:14:44;;;;;;;2.35;2.15;;;19.70;99.90;;;;;;6182474;23;20406;-86
2021/09/25 11:17:28;;;;;;;2.55;2.20;;;19.70;99.90;;;;;;6183327;23;20390;-90
2021/09/25 11:20:19;;;;;;;1.95;1.85;;;19.80;99.90;;;;;;6184451;23;20371;-90
2021/09/25 11:23:03;;;;;;;2.40;2.20;;;20.00;99.90;;;;;;6185597;23;20449;-86
2021/09/25 11:25:50;;;;;;;1.97;1.73;;;20.10;99.90;;;;;;6206819;23;20398;-91
2021/09/25 11:28:35;;;;;;;5.00;1.90;;;20.40;99.90;;;;;;6187933;23;20399;-92
2021/09/25 11:31:19;;;;;;;1.80;1.70;;;20.50;99.90;;;;;;6186053;23;20710;-88
2021/09/25 11:34:25;;;;;;;1.88;1.77;;;20.50;99.90;;;;;;6184629;23;20394;-88
2021/09/25 11:37:09;;;;;;;1.80;1.70;;;20.50;99.90;;;;;;6183054;23;20372;-86
2021/09/25 11:39:54;;;;;;;1.83;1.73;;;20.50;99.90;;;;;;6184542;23;20366;-88
2021/09/25 11:42:39;;;;;;;1.70;1.60;;;20.60;99.90;;;;;;6187630;23;20378;-92
2021/09/25 11:45:24;;;;;;;1.60;1.50;;;20.70;99.90;;;;;;6190624;23;20355;-89
2021/09/25 11:48:09;;;;;;;1.75;1.65;;;20.80;99.90;;;;;;6189598;23;20443;-88
2021/09/25 11:50:54;;;;;;;1.88;1.73;;;20.80;99.90;;;;;;6184240;23;20414;-91
2021/09/25 11:53:38;;;;;;;1.80;1.70;;;20.80;99.90;;;;;;6182792;23;20386;-86
2021/09/25 11:56:27;;;;;;;1.65;1.50;;;20.90;99.90;;;;;;6189996;23;20371;-92
2021/09/25 11:59:11;;;;;;;1.55;1.45;;;20.80;99.90;;;;;;6193527;23;20363;-93
2021/09/25 12:01:56;;;;;;;1.60;1.50;;;20.80;99.90;;;;;;6192980;23;20374;-92
2021/09/25 12:04:41;;;;;;;1.70;1.60;;;20.80;99.90;;;;;;6193750;23;20411;-93
2021/09/25 12:07:46;;;;;;;1.50;1.40;;;20.60;99.90;;;;;;6194154;23;20378;-88
2021/09/25 12:10:42;;;;;;;1.88;1.77;;;20.70;99.90;;;;;;6214258;23;20351;-91
2021/09/25 12:13:35;;;;;;;1.52;1.42;;;21.00;99.90;;;;;;6194529;23;20378;-92
2021/09/25 12:16:21;;;;;;;1.63;1.52;;;21.00;99.90;;;;;;6193709;23;20350;-91
2021/09/25 12:22:17;;;;;;;1.50;1.40;;;21.20;99.90;;;;;;6267100;22;20370;-92
2021/09/25 12:25:02;;;;;;;1.60;1.50;;;21.20;99.90;;;;;;6173503;23;20397;-90
2021/09/25 12:27:46;;;;;;;1.73;1.63;;;21.00;99.90;;;;;;6194444;23;20428;-88
2021/09/25 12:30:31;;;;;;;1.80;1.50;;;21.00;99.90;;;;;;6192603;23;20366;-92
2021/09/25 12:33:18;;;;;;;1.98;1.60;;;21.10;99.90;;;;;;6194424;23;20354;-91
2021/09/25 12:44:54;;;;;;;1.88;1.77;;;21.30;99.90;;;;;;6235219;22;20376;-91
2021/09/25 12:47:39;;;;;;;1.80;1.70;;;21.30;99.90;;;;;;6194275;23;20343;-91
2021/09/25 12:50:28;;;;;;;1.83;1.73;;;21.20;99.90;;;;;;6216652;23;20394;-88
2021/09/25 12:53:15;;;;;;;3.33;3.03;;;21.20;99.90;;;;;;6213632;23;20390;-91
2021/09/25 12:56:12;;;;;;;2.63;2.42;;;21.20;99.90;;;;;;6192583;23;20427;-91
2021/09/25 12:58:59;;;;;;;1.73;1.63;;;21.30;99.90;;;;;;6191855;23;20378;-88
2021/09/25 13:01:53;;;;;;;2.38;1.80;;;21.40;99.90;;;;;;6214032;23;20385;-91
2021/09/25 13:05:03;;;;;;;1.80;1.70;;;21.50;99.90;;;;;;6192090;23;20441;-88
2021/09/25 13:07:47;;;;;;;1.77;1.67;;;21.40;99.90;;;;;;6213824;23;20386;-90
2021/09/25 13:10:32;;;;;;;6.50;1.80;;;21.60;99.90;;;;;;6185829;23;20386;-87
2021/09/25 13:13:17;;;;;;;1.85;1.42;;;21.50;99.90;;;;;;6230367;23;20389;-88
2021/09/25 13:16:11;;;;;;;1.65;1.55;;;21.40;99.90;;;;;;6191023;23;20414;-89
2021/09/25 13:18:58;;;;;;;2.22;1.90;;;21.40;99.90;;;;;;6191673;23;20379;-90
2021/09/25 13:21:43;;;;;;;1.42;1.33;;;21.50;99.90;;;;;;6193526;23;20375;-91
2021/09/25 13:24:27;;;;;;;1.70;1.60;;;21.60;99.90;;;;;;6211196;23;20350;-88
2021/09/25 13:27:11;;;;;;;1.52;1.42;;;21.60;99.90;;;;;;6215302;23;20370;-92
2021/09/25 13:29:56;;;;;;;1.80;1.70;;;21.70;99.90;;;;;;6191516;23;20401;-91
2021/09/25 13:32:41;;;;;;;1.80;1.70;;;21.60;99.90;;;;;;6190680;23;20374;-93
2021/09/25 13:35:25;;;;;;;1.83;1.60;;;21.60;99.90;;;;;;6194111;23;20400;-93
2021/09/25 13:38:10;;;;;;;2.58;1.85;;;21.80;99.90;;;;;;6214518;23;20406;-90
2021/09/25 13:40:54;;;;;;;2.20;1.80;;;21.60;99.90;;;;;;6191982;23;20391;-90
2021/09/25 13:43:41;;;;;;;1.50;1.40;;;21.60;99.90;;;;;;6192553;23;20387;-93
2021/09/25 13:46:26;;;;;;;1.85;1.75;;;21.60;99.90;;;;;;6194524;23;20350;-91
2021/09/25 13:49:10;;;;;;;1.70;1.60;;;21.60;99.90;;;;;;6215080;23;20386;-93
2021/09/25 13:51:54;;;;;;;1.80;1.70;;;21.70;99.90;;;;;;6176297;22;20381;-92
2021/09/25 13:54:39;;;;;;;1.70;1.60;;;21.80;99.90;;;;;;6193975;23;20362;-92
2021/09/25 13:57:26;;;;;;;1.58;1.48;;;21.60;99.90;;;;;;6192526;23;20380;-91
2021/09/25 14:00:12;;;;;;;1.80;1.70;;;21.50;99.90;;;;;;6195891;23;20377;-91
2021/09/25 14:02:58;;;;;;;3.73;1.63;;;21.60;99.90;;;;;;6194065;23;20366;-94
2021/09/25 14:05:43;;;;;;;1.58;1.48;;;21.20;99.90;;;;;;6194224;23;20354;-92
2021/09/25 14:08:28;;;;;;;1.70;1.60;;;21.30;99.90;;;;;;6193384;23;20428;-93
2021/09/25 14:11:13;;;;;;;2.33;1.33;;;21.40;99.90;;;;;;6196133;23;20369;-92
2021/09/25 14:13:57;;;;;;;1.73;1.40;;;21.50;99.90;;;;;;6193897;23;20351;-92
2021/09/25 14:16:42;;;;;;;1.40;1.25;;;21.50;99.90;;;;;;6237034;23;20389;-93
2021/09/25 14:19:27;;;;;;;1.40;1.30;;;21.70;99.90;;;;;;6192954;23;20378;-91
2021/09/25 15:39:15;;;;;;;0.90;0.90;;;21.10;99.90;;;;;;6226926;22;20400;-91
2021/09/25 15:42:00;;;;;;;0.90;0.90;;;21.10;99.90;;;;;;6181413;23;20373;-89
2021/09/25 15:44:44;;;;;;;1.42;1.33;;;21.00;99.90;;;;;;6172786;23;20382;-89
2021/09/25 15:47:29;;;;;;;1.23;1.13;;;21.00;99.90;;;;;;6177100;22;20656;-91
2021/09/25 15:50:14;;;;;;;0.97;0.97;;;20.80;99.90;;;;;;6194611;23;20354;-92
2021/09/25 15:52:58;;;;;;;0.90;0.90;;;20.80;99.90;;;;;;6213771;23;20350;-91
2021/09/25 15:55:42;;;;;;;1.25;1.15;;;20.90;99.90;;;;;;6213309;23;20376;-91
2021/09/25 15:58:27;;;;;;;1.38;1.00;;;20.90;99.90;;;;;;6192045;23;20374;-92
2021/09/25 16:01:11;;;;;;;1.00;1.00;;;20.80;99.90;;;;;;6192101;23;20406;-93
2021/09/25 16:03:55;;;;;;;1.00;1.00;;;20.80;99.90;;;;;;6192352;23;20386;-91
2021/09/25 16:06:39;;;;;;;1.00;1.00;;;20.70;99.90;;;;;;6192945;23;20407;-89
2021/09/25 16:09:26;;;;;;;1.33;1.10;;;20.60;99.90;;;;;;6192022;22;20686;-91
2021/09/25 16:12:11;;;;;;;1.08;1.08;;;20.70;99.90;;;;;;6211408;23;20409;-91
2021/09/25 16:14:56;;;;;;;1.00;1.00;;;20.60;99.90;;;;;;6175928;23;20374;-91
2021/09/25 16:17:40;;;;;;;1.05;1.05;;;20.70;99.90;;;;;;6211469;23;20345;-92
2021/09/25 16:20:26;;;;;;;1.30;1.08;;;20.60;99.90;;;;;;6192024;23;20385;-92
2021/09/25 16:23:10;;;;;;;1.10;1.10;;;20.60;99.90;;;;;;6168741;23;20447;-91
2021/09/25 16:25:57;;;;;;;1.08;1.08;;;20.60;99.90;;;;;;6187867;23;20367;-92
2021/09/25 16:28:41;;;;;;;1.90;1.80;;;20.60;99.90;;;;;;6168198;23;20358;-90
2021/09/25 16:31:25;;;;;;;2.33;2.13;;;20.60;99.90;;;;;;6190042;23;20438;-91
2021/09/25 16:34:09;;;;;;;1.50;1.40;;;20.50;99.90;;;;;;6169150;23;20366;-92
2021/09/25 16:36:55;;;;;;;1.00;1.00;;;20.50;99.90;;;;;;6190363;23;20358;-92
2021/09/25 16:39:41;;;;;;;0.95;0.95;;;20.50;99.90;;;;;;6209551;23;20441;-91
2021/09/25 16:42:26;;;;;;;1.02;1.00;;;20.40;99.90;;;;;;6190164;23;20448;-92
2021/09/25 16:45:10;;;;;;;0.95;0.95;;;20.40;99.90;;;;;;6190369;23;20413;-90
2021/09/25 16:47:54;;;;;;;0.90;0.90;;;20.30;99.90;;;;;;6194929;23;20725;-93
2021/09/25 16:50:39;;;;;;;1.08;1.08;;;20.30;99.90;;;;;;6232788;23;20412;-91
2021/09/25 16:53:23;;;;;;;0.93;0.93;;;20.30;99.90;;;;;;6232887;23;20435;-90
2021/09/25 16:56:09;;;;;;;1.17;1.17;;;20.30;99.90;;;;;;6230066;23;20358;-89
2021/09/25 16:58:53;;;;;;;1.10;1.10;;;20.10;99.90;;;;;;6232197;23;20382;-92
2021/09/25 17:01:38;;;;;;;1.20;1.10;;;20.10;99.90;;;;;;6230616;23;20402;-92
2021/09/25 17:04:23;;;;;;;0.90;0.90;;;20.10;99.90;;;;;;6233579;23;20347;-91
2021/09/25 17:07:08;;;;;;;0.90;0.90;;;20.10;99.90;;;;;;6233842;23;20394;-91
2021/09/25 17:09:55;;;;;;;1.00;1.00;;;20.10;99.90;;;;;;6212683;23;20370;-92
2021/09/25 17:12:39;;;;;;;1.00;1.00;;;20.10;99.90;;;;;;6236211;23;20370;-92
2021/09/25 17:15:24;;;;;;;1.00;1.00;;;20.10;99.90;;;;;;6227636;23;20347;-92
2021/09/25 17:18:08;;;;;;;1.08;1.08;;;20.00;99.90;;;;;;6216578;23;20402;-93
2021/09/25 17:20:53;;;;;;;1.85;1.20;;;20.00;99.90;;;;;;6214619;23;20350;-93
2021/09/25 17:23:54;;;;;;;0.90;0.90;;;19.90;99.90;;;;;;6166299;22;20453;-92
2021/09/25 17:26:38;;;;;;;2.15;1.95;;;19.90;99.90;;;;;;6154093;23;20358;-92
2021/09/25 17:29:26;;;;;;;2.42;2.03;;;19.90;99.90;;;;;;6155132;23;20375;-93
2021/09/25 17:32:13;;;;;;;1.98;1.77;;;19.80;99.90;;;;;;6175631;23;20515;-92
2021/09/25 17:34:58;;;;;;;2.38;2.20;;;19.80;99.90;;;;;;6155536;23;20387;-92
2021/09/25 17:37:42;;;;;;;2.95;2.75;;;19.80;99.90;;;;;;6155171;23;20439;-92
2021/09/25 17:40:27;;;;;;;2.50;2.30;;;19.70;99.90;;;;;;6150554;23;20425;-91
2021/09/25 17:43:12;;;;;;;1.73;1.63;;;19.70;99.90;;;;;;6148129;23;20395;-88
2021/09/25 17:45:57;;;;;;;1.60;1.50;;;19.70;99.90;;;;;;6149131;23;20387;-92
2021/09/25 17:48:41;;;;;;;1.85;1.75;;;19.60;99.90;;;;;;6147238;23;20378;-90
2021/09/25 17:51:26;;;;;;;2.03;1.92;;;19.60;99.90;;;;;;6167395;23;20370;-90
2021/09/25 17:54:11;;;;;;;2.45;2.25;;;19.50;99.90;;;;;;6168149;23;20371;-87
2021/09/25 17:56:55;;;;;;;1.58;1.48;;;19.40;99.90;;;;;;6148892;23;20371;-90
2021/09/25 17:59:40;;;;;;;2.45;2.25;;;19.40;99.90;;;;;;6147932;23;20522;-91
2021/09/25 18:02:25;;;;;;;2.80;2.60;;;19.40;99.90;;;;;;6190338;23;20982;-91
2021/09/25 18:05:10;;;;;;;3.47;3.13;;;19.30;99.90;;;;;;6170441;23;20386;-91
2021/09/25 18:07:56;;;;;;;3.40;3.05;;;19.20;99.90;;;;;;6147943;23;20368;-90
2021/09/25 18:10:42;;;;;;;3.50;3.20;;;19.10;99.90;;;;;;6135295;23;20375;-91
2021/09/25 18:13:26;;;;;;;4.05;3.75;;;19.00;99.90;;;;;;6148902;23;20363;-88
2021/09/25 18:16:10;;;;;;;4.25;3.65;;;18.90;99.90;;;;;;6147124;23;20374;-92
2021/09/25 18:18:55;;;;;;;3.22;2.92;;;18.70;99.90;;;;;;6168045;23;20382;-92
2021/09/25 18:21:39;;;;;;;2.97;2.78;;;18.70;99.90;;;;;;6190152;23;20387;-92
2021/09/25 18:24:24;;;;;;;2.80;2.60;;;18.70;99.90;;;;;;6148037;23;20371;-90
2021/09/25 18:27:10;;;;;;;3.55;3.25;;;18.70;99.90;;;;;;6147899;23;20407;-92
2021/09/25 18:29:55;;;;;;;2.97;2.78;;;18.80;99.90;;;;;;6189721;23;20390;-91
2021/09/25 18:32:43;;;;;;;4.60;4.10;;;18.70;99.90;;;;;;6134794;23;20367;-92
2021/09/25 18:35:27;;;;;;;3.43;3.10;;;18.70;99.90;;;;;;6158779;23;20414;-92
2021/09/25 18:38:13;;;;;;;3.47;2.90;;;18.60;99.90;;;;;;6147997;23;20398;-89
2021/09/25 18:41:00;;;;;;;4.07;3.67;;;18.50;99.90;;;;;;6148436;23;20343;-91
2021/09/25 18:43:47;;;;;;;6.07;4.53;;;18.40;99.90;;;;;;6147703;23;20362;-87
2021/09/25 18:46:32;;;;;;;5.35;4.85;;;18.40;99.90;;;;;;6170429;23;20363;-91
2021/09/25 18:49:19;;;;;;;5.72;5.13;;;18.40;99.90;;;;;;6150344;23;20403;-91
2021/09/25 18:52:06;;;;;;;4.72;4.32;;;18.40;99.90;;;;;;6149724;23;20426;-89
2021/09/25 18:54:51;;;;;;;4.93;4.43;;;18.10;99.90;;;;;;6149235;23;20359;-91
2021/09/25 18:57:36;;;;;;;6.20;4.00;;;18.00;99.90;;;;;;6191252;23;20382;-91
2021/09/25 19:00:21;;;;;;;5.57;4.07;;;17.90;99.90;;;;;;6190760;23;20419;-87
2021/09/25 19:03:05;;;;;;;3.83;3.53;;;17.80;99.90;;;;;;6170192;23;20371;-92
2021/09/25 19:05:51;;;;;;;6.93;4.65;;;17.70;99.90;;;;;;6167522;23;20370;-91
2021/09/25 19:08:35;;;;;;;11.10;9.50;;;17.70;99.90;;;;;;6169544;23;20379;-91
2021/09/25 19:11:20;;;;;;;8.83;6.87;;;17.70;99.90;;;;;;6148733;23;20383;-90
2021/09/25 19:14:04;;;;;;;5.25;4.55;;;17.50;99.90;;;;;;6149057;23;20359;-90
2021/09/25 19:16:48;;;;;;;6.77;5.00;;;17.40;99.90;;;;;;6150785;23;20358;-91
2021/09/25 19:19:36;;;;;;;5.97;4.53;;;17.40;99.90;;;;;;6149278;23;20362;-90
2021/09/25 19:22:21;;;;;;;4.65;4.00;;;17.30;99.90;;;;;;6156924;23;20399;-91
2021/09/25 19:25:07;;;;;;;3.53;3.13;;;17.30;99.90;;;;;;6148847;23;20371;-89
2021/09/25 19:27:52;;;;;;;4.43;4.03;;;17.20;99.90;;;;;;6148866;23;20369;-90
2021/09/25 19:30:36;;;;;;;3.97;3.67;;;17.20;99.90;;;;;;6146425;23;20370;-90
2021/09/25 19:33:21;;;;;;;4.57;4.05;;;17.20;99.90;;;;;;6147676;23;20362;-92
2021/09/25 19:36:06;;;;;;;5.07;4.22;;;17.20;99.90;;;;;;6156453;23;20394;-89
2021/09/25 19:38:51;;;;;;;3.75;3.45;;;17.10;99.90;;;;;;6171466;23;20489;-90
2021/09/25 19:41:36;;;;;;;4.90;4.40;;;17.10;99.90;;;;;;6170267;23;20362;-87
2021/09/25 19:44:21;;;;;;;4.43;3.95;;;17.10;99.90;;;;;;6167006;23;20374;-86
2021/09/25 19:47:06;;;;;;;4.82;4.43;;;17.00;99.90;;;;;;6169464;23;20367;-90
2021/09/25 19:49:52;;;;;;;4.78;4.13;;;16.90;99.90;;;;;;6148781;23;20362;-88
2021/09/25 19:52:36;;;;;;;4.60;4.20;;;16.80;99.90;;;;;;6168689;23;20409;-89
2021/09/25 19:55:21;;;;;;;4.53;3.70;;;16.70;99.90;;;;;;6148090;23;20371;-89
2021/09/25 19:58:05;;;;;;;5.55;5.05;;;16.80;99.90;;;;;;6146326;23;20394;-89
2021/09/25 20:00:50;;;;;;;3.67;3.37;;;16.60;99.90;;;;;;6167629;23;20612;-90
2021/09/25 20:03:34;;;;;;;3.78;3.40;;;16.50;99.90;;;;;;6207486;23;20387;-89
2021/09/25 20:06:19;;;;;;;4.55;4.07;;;16.40;99.90;;;;;;6186268;23;20371;-89
2021/09/25 20:09:03;;;;;;;4.00;3.47;;;16.40;99.90;;;;;;6147027;23;20447;-88
2021/09/25 20:11:47;;;;;;;4.03;3.63;;;16.30;99.90;;;;;;6146675;23;20406;-89
2021/09/25 20:14:32;;;;;;;3.72;3.35;;;16.20;99.90;;;;;;6147393;23;20370;-87
2021/09/25 20:17:18;;;;;;;3.40;3.10;;;16.30;99.90;;;;;;6149256;23;20366;-91
2021/09/25 20:20:04;;;;;;;3.53;3.15;;;16.30;99.90;;;;;;6188835;23;20386;-90
2021/09/25 20:22:49;;;;;;;3.35;2.80;;;16.30;99.90;;;;;;6168732;23;20437;-88
2021/09/25 20:25:33;;;;;;;3.45;2.53;;;16.30;99.90;;;;;;6188993;23;20362;-91
2021/09/25 20:28:18;;;;;;;2.63;2.43;;;16.30;99.90;;;;;;6147270;23;20418;-90
2021/09/25 20:31:02;;;;;;;2.90;2.63;;;16.30;99.90;;;;;;6147973;23;20374;-89
2021/09/25 20:33:46;;;;;;;2.60;2.40;;;16.20;99.90;;;;;;6143336;23;20358;-87
2021/09/25 20:36:31;;;;;;;3.85;2.50;;;16.20;99.90;;;;;;6148491;23;20366;-89
2021/09/25 20:39:15;;;;;;;3.17;2.88;;;16.30;99.90;;;;;;6167570;23;20354;-87
2021/09/25 20:42:00;;;;;;;4.40;4.00;;;16.20;99.90;;;;;;6132350;22;20398;-87